sensor_id;sensor_type;location;lat;lon;timestamp;P1;durP1;ratioP1;P2;durP2;ratioP2
3767;SDS011;1899;49.966;7.106;2024-03-22T00:00:03;10.30;;;5.30;;
3767;SDS011;1899;49.966;7.106;2024-03-22T00:02:29;11.90;;;5.60;;
3767;SDS011;1899;49.966;7.106;2024-03-22T00:04:54;8.70;;;4.97;;
3767;SDS011;1899;49.966;7.106;2024-03-22T00:07:19;14.07;;;5.33;;
3767;SDS011;1899;49.966;7.106;2024-03-22T00:09:44;9.97;;;5.00;;
3767;SDS011;1899;49.966;7.106;2024-03-22T00:12:10;9.60;;;5.90;;
3767;SDS011;1899;49.966;7.106;2024-03-22T00:14:35;9.93;;;5.40;;
3767;SDS011;1899;49.966;7.106;2024-03-22T00:17:00;10.57;;;6.00;;
3767;SDS011;1899;49.966;7.106;2024-03-22T00:19:25;11.10;;;5.63;;
3767;SDS011;1899;49.966;7.106;2024-03-22T00:21:51;15.13;;;6.70;;
3767;SDS011;1899;49.966;7.106;2024-03-22T00:24:16;17.13;;;6.80;;
3767;SDS011;1899;49.966;7.106;2024-03-22T00:26:41;11.57;;;5.83;;
3767;SDS011;1899;49.966;7.106;2024-03-22T00:29:07;13.63;;;6.47;;
3767;SDS011;1899;49.966;7.106;2024-03-22T00:31:32;11.63;;;5.97;;
3767;SDS011;1899;49.966;7.106;2024-03-22T00:33:57;9.20;;;6.07;;
3767;SDS011;1899;49.966;7.106;2024-03-22T00:36:23;14.20;;;6.33;;
3767;SDS011;1899;49.966;7.106;2024-03-22T00:38:48;11.43;;;5.50;;
3767;SDS011;1899;49.966;7.106;2024-03-22T00:41:13;10.00;;;5.60;;
3767;SDS011;1899;49.966;7.106;2024-03-22T00:43:38;9.73;;;6.00;;
3767;SDS011;1899;49.966;7.106;2024-03-22T00:46:04;10.97;;;5.77;;
3767;SDS011;1899;49.966;7.106;2024-03-22T00:48:29;10.90;;;5.37;;
3767;SDS011;1899;49.966;7.106;2024-03-22T00:50:54;11.93;;;6.10;;
3767;SDS011;1899;49.966;7.106;2024-03-22T00:53:20;14.80;;;6.63;;
3767;SDS011;1899;49.966;7.106;2024-03-22T00:55:45;11.73;;;6.00;;
3767;SDS011;1899;49.966;7.106;2024-03-22T00:58:15;9.43;;;5.20;;
3767;SDS011;1899;49.966;7.106;2024-03-22T01:00:41;10.90;;;6.20;;
3767;SDS011;1899;49.966;7.106;2024-03-22T01:03:06;12.00;;;7.00;;
3767;SDS011;1899;49.966;7.106;2024-03-22T01:05:31;11.17;;;6.20;;
3767;SDS011;1899;49.966;7.106;2024-03-22T01:07:56;18.97;;;6.10;;
3767;SDS011;1899;49.966;7.106;2024-03-22T01:10:22;9.40;;;5.60;;
3767;SDS011;1899;49.966;7.106;2024-03-22T01:12:47;12.10;;;7.00;;
3767;SDS011;1899;49.966;7.106;2024-03-22T01:15:12;11.07;;;6.17;;
3767;SDS011;1899;49.966;7.106;2024-03-22T01:17:37;10.57;;;5.63;;
3767;SDS011;1899;49.966;7.106;2024-03-22T01:20:03;10.10;;;5.53;;
3767;SDS011;1899;49.966;7.106;2024-03-22T01:22:28;12.10;;;6.13;;
3767;SDS011;1899;49.966;7.106;2024-03-22T01:24:54;9.70;;;6.13;;
3767;SDS011;1899;49.966;7.106;2024-03-22T01:27:19;10.50;;;5.90;;
3767;SDS011;1899;49.966;7.106;2024-03-22T01:29:45;10.70;;;6.87;;
3767;SDS011;1899;49.966;7.106;2024-03-22T01:32:11;14.30;;;6.47;;
3767;SDS011;1899;49.966;7.106;2024-03-22T01:34:36;11.57;;;5.90;;
3767;SDS011;1899;49.966;7.106;2024-03-22T01:37:01;9.20;;;5.63;;
3767;SDS011;1899;49.966;7.106;2024-03-22T01:39:27;11.70;;;6.63;;
3767;SDS011;1899;49.966;7.106;2024-03-22T01:41:53;11.83;;;5.57;;
3767;SDS011;1899;49.966;7.106;2024-03-22T01:44:18;11.93;;;6.37;;
3767;SDS011;1899;49.966;7.106;2024-03-22T01:46:44;16.43;;;6.00;;
3767;SDS011;1899;49.966;7.106;2024-03-22T01:49:09;9.30;;;6.00;;
3767;SDS011;1899;49.966;7.106;2024-03-22T01:51:36;10.47;;;5.97;;
3767;SDS011;1899;49.966;7.106;2024-03-22T01:54:01;10.10;;;5.53;;
3767;SDS011;1899;49.966;7.106;2024-03-22T01:56:27;11.60;;;6.37;;
3767;SDS011;1899;49.966;7.106;2024-03-22T01:58:52;10.30;;;6.50;;
3767;SDS011;1899;49.966;7.106;2024-03-22T02:01:18;11.40;;;6.13;;
3767;SDS011;1899;49.966;7.106;2024-03-22T02:03:43;11.57;;;5.67;;
3767;SDS011;1899;49.966;7.106;2024-03-22T02:06:08;10.97;;;5.70;;
3767;SDS011;1899;49.966;7.106;2024-03-22T02:08:34;10.47;;;5.60;;
3767;SDS011;1899;49.966;7.106;2024-03-22T02:11:00;14.90;;;5.50;;
3767;SDS011;1899;49.966;7.106;2024-03-22T02:13:25;12.10;;;5.13;;
3767;SDS011;1899;49.966;7.106;2024-03-22T02:15:50;9.93;;;4.73;;
3767;SDS011;1899;49.966;7.106;2024-03-22T02:18:16;9.50;;;5.30;;
3767;SDS011;1899;49.966;7.106;2024-03-22T02:20:41;9.00;;;4.23;;
3767;SDS011;1899;49.966;7.106;2024-03-22T02:23:06;11.30;;;5.40;;
3767;SDS011;1899;49.966;7.106;2024-03-22T02:25:31;11.57;;;4.83;;
3767;SDS011;1899;49.966;7.106;2024-03-22T02:27:57;10.40;;;5.60;;
3767;SDS011;1899;49.966;7.106;2024-03-22T02:30:22;9.30;;;5.33;;
3767;SDS011;1899;49.966;7.106;2024-03-22T02:32:47;13.03;;;5.50;;
3767;SDS011;1899;49.966;7.106;2024-03-22T02:35:12;9.80;;;4.63;;
3767;SDS011;1899;49.966;7.106;2024-03-22T02:37:38;10.50;;;6.00;;
3767;SDS011;1899;49.966;7.106;2024-03-22T02:40:03;10.70;;;6.27;;
3767;SDS011;1899;49.966;7.106;2024-03-22T02:42:28;9.03;;;4.97;;
3767;SDS011;1899;49.966;7.106;2024-03-22T02:44:53;10.53;;;5.30;;
3767;SDS011;1899;49.966;7.106;2024-03-22T02:47:19;10.40;;;5.40;;
3767;SDS011;1899;49.966;7.106;2024-03-22T02:49:44;10.13;;;5.10;;
3767;SDS011;1899;49.966;7.106;2024-03-22T02:52:09;11.83;;;5.63;;
3767;SDS011;1899;49.966;7.106;2024-03-22T02:54:34;13.17;;;5.87;;
3767;SDS011;1899;49.966;7.106;2024-03-22T02:57:00;9.87;;;5.30;;
3767;SDS011;1899;49.966;7.106;2024-03-22T02:59:26;12.87;;;6.43;;
3767;SDS011;1899;49.966;7.106;2024-03-22T03:01:52;8.27;;;5.00;;
3767;SDS011;1899;49.966;7.106;2024-03-22T03:04:17;10.70;;;5.60;;
3767;SDS011;1899;49.966;7.106;2024-03-22T03:06:42;8.97;;;5.37;;
3767;SDS011;1899;49.966;7.106;2024-03-22T03:09:08;12.00;;;5.33;;
3767;SDS011;1899;49.966;7.106;2024-03-22T03:11:37;12.93;;;5.77;;
3767;SDS011;1899;49.966;7.106;2024-03-22T03:14:02;8.30;;;5.10;;
3767;SDS011;1899;49.966;7.106;2024-03-22T03:16:27;8.40;;;5.00;;
3767;SDS011;1899;49.966;7.106;2024-03-22T03:18:52;9.67;;;5.03;;
3767;SDS011;1899;49.966;7.106;2024-03-22T03:21:18;7.97;;;4.83;;
3767;SDS011;1899;49.966;7.106;2024-03-22T03:23:43;8.73;;;5.30;;
3767;SDS011;1899;49.966;7.106;2024-03-22T03:26:08;9.10;;;4.93;;
3767;SDS011;1899;49.966;7.106;2024-03-22T03:28:33;9.37;;;5.20;;
3767;SDS011;1899;49.966;7.106;2024-03-22T03:30:59;15.93;;;5.57;;
3767;SDS011;1899;49.966;7.106;2024-03-22T03:33:24;9.80;;;5.30;;
3767;SDS011;1899;49.966;7.106;2024-03-22T03:35:49;8.40;;;4.47;;
3767;SDS011;1899;49.966;7.106;2024-03-22T03:38:15;13.17;;;5.50;;
3767;SDS011;1899;49.966;7.106;2024-03-22T03:40:40;10.90;;;5.40;;
3767;SDS011;1899;49.966;7.106;2024-03-22T03:43:05;9.80;;;5.30;;
3767;SDS011;1899;49.966;7.106;2024-03-22T03:45:30;9.43;;;5.10;;
3767;SDS011;1899;49.966;7.106;2024-03-22T03:47:56;10.93;;;5.47;;
3767;SDS011;1899;49.966;7.106;2024-03-22T03:50:21;6.90;;;4.00;;
3767;SDS011;1899;49.966;7.106;2024-03-22T03:52:47;13.10;;;5.60;;
3767;SDS011;1899;49.966;7.106;2024-03-22T03:55:12;9.27;;;4.97;;
3767;SDS011;1899;49.966;7.106;2024-03-22T03:57:37;13.87;;;5.57;;
3767;SDS011;1899;49.966;7.106;2024-03-22T04:00:03;9.10;;;5.60;;
3767;SDS011;1899;49.966;7.106;2024-03-22T04:02:28;12.23;;;5.47;;
3767;SDS011;1899;49.966;7.106;2024-03-22T04:04:54;12.07;;;5.67;;
3767;SDS011;1899;49.966;7.106;2024-03-22T04:07:22;10.50;;;5.30;;
3767;SDS011;1899;49.966;7.106;2024-03-22T04:09:47;9.67;;;4.90;;
3767;SDS011;1899;49.966;7.106;2024-03-22T04:12:12;8.20;;;5.17;;
3767;SDS011;1899;49.966;7.106;2024-03-22T04:14:38;11.17;;;5.63;;
3767;SDS011;1899;49.966;7.106;2024-03-22T04:17:03;10.83;;;5.23;;
3767;SDS011;1899;49.966;7.106;2024-03-22T04:19:29;9.53;;;5.20;;
3767;SDS011;1899;49.966;7.106;2024-03-22T04:21:54;9.93;;;5.17;;
3767;SDS011;1899;49.966;7.106;2024-03-22T04:24:19;9.27;;;5.07;;
3767;SDS011;1899;49.966;7.106;2024-03-22T04:26:44;8.60;;;4.87;;
3767;SDS011;1899;49.966;7.106;2024-03-22T04:29:10;10.60;;;5.03;;
3767;SDS011;1899;49.966;7.106;2024-03-22T04:31:35;10.20;;;6.13;;
3767;SDS011;1899;49.966;7.106;2024-03-22T04:34:00;9.50;;;4.70;;
3767;SDS011;1899;49.966;7.106;2024-03-22T04:36:25;11.40;;;5.20;;
3767;SDS011;1899;49.966;7.106;2024-03-22T04:38:51;12.17;;;5.50;;
3767;SDS011;1899;49.966;7.106;2024-03-22T04:41:16;7.53;;;4.80;;
3767;SDS011;1899;49.966;7.106;2024-03-22T04:43:42;12.63;;;5.87;;
3767;SDS011;1899;49.966;7.106;2024-03-22T04:46:07;8.37;;;4.93;;
3767;SDS011;1899;49.966;7.106;2024-03-22T04:48:33;8.13;;;4.80;;
3767;SDS011;1899;49.966;7.106;2024-03-22T04:50:58;8.83;;;5.20;;
3767;SDS011;1899;49.966;7.106;2024-03-22T04:53:23;11.50;;;5.30;;
3767;SDS011;1899;49.966;7.106;2024-03-22T04:55:49;10.60;;;5.30;;
3767;SDS011;1899;49.966;7.106;2024-03-22T04:58:14;8.50;;;4.47;;
3767;SDS011;1899;49.966;7.106;2024-03-22T05:00:40;14.67;;;6.13;;
3767;SDS011;1899;49.966;7.106;2024-03-22T05:03:06;11.47;;;5.90;;
3767;SDS011;1899;49.966;7.106;2024-03-22T05:05:31;11.13;;;5.40;;
3767;SDS011;1899;49.966;7.106;2024-03-22T05:07:56;12.80;;;5.37;;
3767;SDS011;1899;49.966;7.106;2024-03-22T05:10:21;7.40;;;4.43;;
3767;SDS011;1899;49.966;7.106;2024-03-22T05:12:47;9.67;;;5.60;;
3767;SDS011;1899;49.966;7.106;2024-03-22T05:15:12;10.50;;;6.30;;
3767;SDS011;1899;49.966;7.106;2024-03-22T05:17:37;10.63;;;5.77;;
3767;SDS011;1899;49.966;7.106;2024-03-22T05:20:04;9.53;;;4.57;;
3767;SDS011;1899;49.966;7.106;2024-03-22T05:22:30;8.50;;;4.80;;
3767;SDS011;1899;49.966;7.106;2024-03-22T05:24:55;9.73;;;5.50;;
3767;SDS011;1899;49.966;7.106;2024-03-22T05:27:21;8.97;;;4.87;;
3767;SDS011;1899;49.966;7.106;2024-03-22T05:29:47;9.37;;;5.17;;
3767;SDS011;1899;49.966;7.106;2024-03-22T05:32:12;8.97;;;4.60;;
3767;SDS011;1899;49.966;7.106;2024-03-22T05:34:37;12.60;;;6.20;;
3767;SDS011;1899;49.966;7.106;2024-03-22T05:37:03;10.63;;;4.53;;
3767;SDS011;1899;49.966;7.106;2024-03-22T05:39:28;10.07;;;5.23;;
3767;SDS011;1899;49.966;7.106;2024-03-22T05:41:53;11.23;;;5.50;;
3767;SDS011;1899;49.966;7.106;2024-03-22T05:44:21;9.40;;;5.63;;
3767;SDS011;1899;49.966;7.106;2024-03-22T05:46:46;9.67;;;5.17;;
3767;SDS011;1899;49.966;7.106;2024-03-22T05:49:11;16.20;;;6.43;;
3767;SDS011;1899;49.966;7.106;2024-03-22T05:51:37;7.93;;;5.10;;
3767;SDS011;1899;49.966;7.106;2024-03-22T05:54:02;9.67;;;5.80;;
3767;SDS011;1899;49.966;7.106;2024-03-22T05:56:28;9.50;;;5.73;;
3767;SDS011;1899;49.966;7.106;2024-03-22T05:58:53;8.90;;;5.57;;
3767;SDS011;1899;49.966;7.106;2024-03-22T06:01:19;13.87;;;5.57;;
3767;SDS011;1899;49.966;7.106;2024-03-22T06:03:44;8.17;;;5.07;;
3767;SDS011;1899;49.966;7.106;2024-03-22T06:06:09;8.07;;;4.90;;
3767;SDS011;1899;49.966;7.106;2024-03-22T06:08:34;9.37;;;5.10;;
3767;SDS011;1899;49.966;7.106;2024-03-22T06:11:04;9.20;;;5.77;;
3767;SDS011;1899;49.966;7.106;2024-03-22T06:13:29;8.23;;;5.10;;
3767;SDS011;1899;49.966;7.106;2024-03-22T06:15:56;10.43;;;6.67;;
3767;SDS011;1899;49.966;7.106;2024-03-22T06:18:22;9.20;;;5.30;;
3767;SDS011;1899;49.966;7.106;2024-03-22T06:20:47;8.80;;;5.13;;
3767;SDS011;1899;49.966;7.106;2024-03-22T06:23:12;9.40;;;5.50;;
3767;SDS011;1899;49.966;7.106;2024-03-22T06:25:37;9.80;;;5.03;;
3767;SDS011;1899;49.966;7.106;2024-03-22T06:28:03;10.97;;;5.90;;
3767;SDS011;1899;49.966;7.106;2024-03-22T06:30:28;9.83;;;4.77;;
3767;SDS011;1899;49.966;7.106;2024-03-22T06:32:53;8.80;;;4.60;;
3767;SDS011;1899;49.966;7.106;2024-03-22T06:35:20;8.47;;;4.80;;
3767;SDS011;1899;49.966;7.106;2024-03-22T06:37:45;9.47;;;5.23;;
3767;SDS011;1899;49.966;7.106;2024-03-22T06:40:10;9.97;;;5.10;;
3767;SDS011;1899;49.966;7.106;2024-03-22T06:42:36;9.37;;;5.47;;
3767;SDS011;1899;49.966;7.106;2024-03-22T06:45:02;8.60;;;5.00;;
3767;SDS011;1899;49.966;7.106;2024-03-22T06:47:27;8.83;;;4.90;;
3767;SDS011;1899;49.966;7.106;2024-03-22T06:49:52;8.30;;;4.70;;
3767;SDS011;1899;49.966;7.106;2024-03-22T06:52:18;7.60;;;4.40;;
3767;SDS011;1899;49.966;7.106;2024-03-22T06:54:44;11.60;;;6.20;;
3767;SDS011;1899;49.966;7.106;2024-03-22T06:57:09;12.47;;;5.43;;
3767;SDS011;1899;49.966;7.106;2024-03-22T06:59:35;8.27;;;4.90;;
3767;SDS011;1899;49.966;7.106;2024-03-22T07:02:00;8.83;;;6.20;;
3767;SDS011;1899;49.966;7.106;2024-03-22T07:04:25;9.07;;;4.97;;
3767;SDS011;1899;49.966;7.106;2024-03-22T07:06:50;9.00;;;4.93;;
3767;SDS011;1899;49.966;7.106;2024-03-22T07:09:16;8.53;;;4.50;;
3767;SDS011;1899;49.966;7.106;2024-03-22T07:11:41;8.07;;;5.00;;
3767;SDS011;1899;49.966;7.106;2024-03-22T07:14:07;8.60;;;5.30;;
3767;SDS011;1899;49.966;7.106;2024-03-22T07:16:32;16.33;;;8.20;;
3767;SDS011;1899;49.966;7.106;2024-03-22T07:18:58;10.77;;;5.97;;
3767;SDS011;1899;49.966;7.106;2024-03-22T07:21:23;13.87;;;6.10;;
3767;SDS011;1899;49.966;7.106;2024-03-22T07:23:48;11.23;;;7.23;;
3767;SDS011;1899;49.966;7.106;2024-03-22T07:26:13;12.93;;;6.23;;
3767;SDS011;1899;49.966;7.106;2024-03-22T07:28:39;10.50;;;6.63;;
3767;SDS011;1899;49.966;7.106;2024-03-22T07:31:04;10.43;;;5.63;;
3767;SDS011;1899;49.966;7.106;2024-03-22T07:33:31;12.87;;;6.93;;
3767;SDS011;1899;49.966;7.106;2024-03-22T07:35:56;15.30;;;6.70;;
3767;SDS011;1899;49.966;7.106;2024-03-22T07:38:21;14.63;;;6.07;;
3767;SDS011;1899;49.966;7.106;2024-03-22T07:40:47;11.43;;;6.73;;
3767;SDS011;1899;49.966;7.106;2024-03-22T07:43:12;10.17;;;6.80;;
3767;SDS011;1899;49.966;7.106;2024-03-22T07:45:39;15.47;;;7.27;;
3767;SDS011;1899;49.966;7.106;2024-03-22T07:48:05;10.77;;;6.50;;
3767;SDS011;1899;49.966;7.106;2024-03-22T07:50:30;10.40;;;6.30;;
3767;SDS011;1899;49.966;7.106;2024-03-22T07:52:55;18.30;;;8.30;;
3767;SDS011;1899;49.966;7.106;2024-03-22T07:55:21;14.13;;;7.40;;
3767;SDS011;1899;49.966;7.106;2024-03-22T07:57:47;13.10;;;7.23;;
3767;SDS011;1899;49.966;7.106;2024-03-22T08:00:12;9.40;;;6.70;;
3767;SDS011;1899;49.966;7.106;2024-03-22T08:02:37;12.97;;;7.40;;
3767;SDS011;1899;49.966;7.106;2024-03-22T08:05:03;13.97;;;7.53;;
3767;SDS011;1899;49.966;7.106;2024-03-22T08:07:29;14.43;;;7.50;;
3767;SDS011;1899;49.966;7.106;2024-03-22T08:09:54;15.77;;;8.47;;
3767;SDS011;1899;49.966;7.106;2024-03-22T08:12:20;14.27;;;7.70;;
3767;SDS011;1899;49.966;7.106;2024-03-22T08:14:46;10.60;;;7.63;;
3767;SDS011;1899;49.966;7.106;2024-03-22T08:17:11;12.93;;;6.50;;
3767;SDS011;1899;49.966;7.106;2024-03-22T08:19:36;11.67;;;7.27;;
3767;SDS011;1899;49.966;7.106;2024-03-22T08:22:02;11.20;;;6.83;;
3767;SDS011;1899;49.966;7.106;2024-03-22T08:24:27;14.07;;;7.47;;
3767;SDS011;1899;49.966;7.106;2024-03-22T08:26:52;13.27;;;8.00;;
3767;SDS011;1899;49.966;7.106;2024-03-22T08:29:18;11.50;;;8.20;;
3767;SDS011;1899;49.966;7.106;2024-03-22T08:31:44;12.30;;;8.50;;
3767;SDS011;1899;49.966;7.106;2024-03-22T08:34:09;13.27;;;8.70;;
3767;SDS011;1899;49.966;7.106;2024-03-22T08:36:34;18.37;;;9.50;;
3767;SDS011;1899;49.966;7.106;2024-03-22T08:39:00;11.87;;;8.70;;
3767;SDS011;1899;49.966;7.106;2024-03-22T08:41:25;17.30;;;9.23;;
3767;SDS011;1899;49.966;7.106;2024-03-22T08:43:50;14.47;;;7.03;;
3767;SDS011;1899;49.966;7.106;2024-03-22T08:46:15;16.40;;;7.00;;
3767;SDS011;1899;49.966;7.106;2024-03-22T08:48:41;10.77;;;6.97;;
3767;SDS011;1899;49.966;7.106;2024-03-22T08:51:06;12.53;;;6.77;;
3767;SDS011;1899;49.966;7.106;2024-03-22T08:53:31;12.40;;;7.37;;
3767;SDS011;1899;49.966;7.106;2024-03-22T08:55:57;11.27;;;7.00;;
3767;SDS011;1899;49.966;7.106;2024-03-22T08:58:22;12.30;;;6.60;;
3767;SDS011;1899;49.966;7.106;2024-03-22T09:00:47;21.23;;;6.53;;
3767;SDS011;1899;49.966;7.106;2024-03-22T09:03:12;14.70;;;7.40;;
3767;SDS011;1899;49.966;7.106;2024-03-22T09:05:39;11.00;;;6.13;;
3767;SDS011;1899;49.966;7.106;2024-03-22T09:08:05;9.23;;;5.57;;
3767;SDS011;1899;49.966;7.106;2024-03-22T09:10:30;10.43;;;5.00;;
3767;SDS011;1899;49.966;7.106;2024-03-22T09:12:55;12.50;;;5.33;;
3767;SDS011;1899;49.966;7.106;2024-03-22T09:15:21;10.57;;;5.13;;
3767;SDS011;1899;49.966;7.106;2024-03-22T09:17:46;9.60;;;5.17;;
3767;SDS011;1899;49.966;7.106;2024-03-22T09:20:12;8.23;;;4.87;;
3767;SDS011;1899;49.966;7.106;2024-03-22T09:22:37;11.17;;;4.90;;
3767;SDS011;1899;49.966;7.106;2024-03-22T09:25:04;9.87;;;5.63;;
3767;SDS011;1899;49.966;7.106;2024-03-22T09:27:30;10.33;;;5.20;;
3767;SDS011;1899;49.966;7.106;2024-03-22T09:29:55;11.83;;;5.90;;
3767;SDS011;1899;49.966;7.106;2024-03-22T09:32:20;12.40;;;6.73;;
3767;SDS011;1899;49.966;7.106;2024-03-22T09:34:48;12.67;;;6.40;;
3767;SDS011;1899;49.966;7.106;2024-03-22T09:37:13;9.97;;;6.00;;
3767;SDS011;1899;49.966;7.106;2024-03-22T09:39:38;11.50;;;6.70;;
3767;SDS011;1899;49.966;7.106;2024-03-22T09:42:04;9.77;;;5.97;;
3767;SDS011;1899;49.966;7.106;2024-03-22T09:44:31;11.40;;;6.67;;
3767;SDS011;1899;49.966;7.106;2024-03-22T09:46:57;9.10;;;6.37;;
3767;SDS011;1899;49.966;7.106;2024-03-22T09:49:23;13.27;;;6.30;;
3767;SDS011;1899;49.966;7.106;2024-03-22T09:51:49;12.60;;;6.93;;
3767;SDS011;1899;49.966;7.106;2024-03-22T09:54:16;13.50;;;8.37;;
3767;SDS011;1899;49.966;7.106;2024-03-22T09:56:41;16.30;;;8.53;;
3767;SDS011;1899;49.966;7.106;2024-03-22T09:59:07;12.00;;;6.33;;
3767;SDS011;1899;49.966;7.106;2024-03-22T10:01:35;14.53;;;8.70;;
3767;SDS011;1899;49.966;7.106;2024-03-22T10:04:01;13.23;;;7.80;;
3767;SDS011;1899;49.966;7.106;2024-03-22T10:06:26;12.73;;;8.03;;
3767;SDS011;1899;49.966;7.106;2024-03-22T10:08:52;11.73;;;7.20;;
3767;SDS011;1899;49.966;7.106;2024-03-22T10:11:18;12.10;;;8.17;;
3767;SDS011;1899;49.966;7.106;2024-03-22T10:13:43;15.37;;;8.03;;
3767;SDS011;1899;49.966;7.106;2024-03-22T10:16:09;11.43;;;7.60;;
3767;SDS011;1899;49.966;7.106;2024-03-22T10:18:34;17.37;;;7.90;;
3767;SDS011;1899;49.966;7.106;2024-03-22T10:21:00;12.30;;;8.43;;
3767;SDS011;1899;49.966;7.106;2024-03-22T10:23:25;14.43;;;8.77;;
3767;SDS011;1899;49.966;7.106;2024-03-22T10:25:51;16.43;;;8.97;;
3767;SDS011;1899;49.966;7.106;2024-03-22T10:28:17;14.37;;;8.90;;
3767;SDS011;1899;49.966;7.106;2024-03-22T10:30:42;12.60;;;8.47;;
3767;SDS011;1899;49.966;7.106;2024-03-22T10:33:08;13.87;;;7.43;;
3767;SDS011;1899;49.966;7.106;2024-03-22T10:35:33;14.40;;;8.47;;
3767;SDS011;1899;49.966;7.106;2024-03-22T10:37:59;14.30;;;8.80;;
3767;SDS011;1899;49.966;7.106;2024-03-22T10:40:25;15.07;;;9.23;;
3767;SDS011;1899;49.966;7.106;2024-03-22T10:42:52;15.07;;;9.00;;
3767;SDS011;1899;49.966;7.106;2024-03-22T10:45:18;14.23;;;9.17;;
3767;SDS011;1899;49.966;7.106;2024-03-22T10:47:47;11.90;;;7.87;;
3767;SDS011;1899;49.966;7.106;2024-03-22T10:50:13;12.03;;;8.47;;
3767;SDS011;1899;49.966;7.106;2024-03-22T10:55:08;13.43;;;8.20;;
3767;SDS011;1899;49.966;7.106;2024-03-22T10:57:35;16.60;;;10.37;;
3767;SDS011;1899;49.966;7.106;2024-03-22T11:00:08;16.00;;;10.37;;
3767;SDS011;1899;49.966;7.106;2024-03-22T11:02:35;14.57;;;9.70;;
3767;SDS011;1899;49.966;7.106;2024-03-22T11:05:00;14.67;;;9.60;;
3767;SDS011;1899;49.966;7.106;2024-03-22T11:07:32;13.73;;;9.97;;
3767;SDS011;1899;49.966;7.106;2024-03-22T11:09:57;13.20;;;9.67;;
3767;SDS011;1899;49.966;7.106;2024-03-22T11:12:26;17.20;;;10.90;;
3767;SDS011;1899;49.966;7.106;2024-03-22T11:14:52;16.40;;;10.93;;
3767;SDS011;1899;49.966;7.106;2024-03-22T11:17:17;17.57;;;11.43;;
3767;SDS011;1899;49.966;7.106;2024-03-22T11:19:43;19.03;;;12.97;;
3767;SDS011;1899;49.966;7.106;2024-03-22T11:22:08;20.93;;;12.70;;
3767;SDS011;1899;49.966;7.106;2024-03-22T11:24:36;17.90;;;11.87;;
3767;SDS011;1899;49.966;7.106;2024-03-22T11:27:02;20.17;;;12.30;;
3767;SDS011;1899;49.966;7.106;2024-03-22T11:29:27;20.60;;;12.37;;
3767;SDS011;1899;49.966;7.106;2024-03-22T11:31:52;13.83;;;10.90;;
3767;SDS011;1899;49.966;7.106;2024-03-22T11:34:18;16.47;;;11.43;;
3767;SDS011;1899;49.966;7.106;2024-03-22T11:36:43;20.93;;;13.73;;
3767;SDS011;1899;49.966;7.106;2024-03-22T11:39:08;20.27;;;12.53;;
3767;SDS011;1899;49.966;7.106;2024-03-22T11:41:34;19.37;;;12.50;;
3767;SDS011;1899;49.966;7.106;2024-03-22T11:43:59;18.83;;;12.07;;
3767;SDS011;1899;49.966;7.106;2024-03-22T11:46:27;18.07;;;12.03;;
3767;SDS011;1899;49.966;7.106;2024-03-22T11:48:53;19.73;;;12.87;;
3767;SDS011;1899;49.966;7.106;2024-03-22T11:51:18;19.03;;;12.60;;
3767;SDS011;1899;49.966;7.106;2024-03-22T11:53:50;17.60;;;11.30;;
3767;SDS011;1899;49.966;7.106;2024-03-22T11:56:17;18.33;;;12.83;;
3767;SDS011;1899;49.966;7.106;2024-03-22T11:58:42;19.60;;;12.03;;
3767;SDS011;1899;49.966;7.106;2024-03-22T12:01:08;18.90;;;12.67;;
3767;SDS011;1899;49.966;7.106;2024-03-22T12:03:33;19.20;;;12.57;;
3767;SDS011;1899;49.966;7.106;2024-03-22T12:05:59;19.00;;;13.30;;
3767;SDS011;1899;49.966;7.106;2024-03-22T12:08:24;18.90;;;12.57;;
3767;SDS011;1899;49.966;7.106;2024-03-22T12:10:49;18.10;;;13.00;;
3767;SDS011;1899;49.966;7.106;2024-03-22T12:13:15;20.90;;;13.17;;
3767;SDS011;1899;49.966;7.106;2024-03-22T12:15:40;18.20;;;13.30;;
3767;SDS011;1899;49.966;7.106;2024-03-22T12:18:05;21.13;;;13.53;;
3767;SDS011;1899;49.966;7.106;2024-03-22T12:20:30;18.80;;;13.47;;
3767;SDS011;1899;49.966;7.106;2024-03-22T12:22:56;17.77;;;12.47;;
3767;SDS011;1899;49.966;7.106;2024-03-22T12:25:21;22.40;;;15.43;;
3767;SDS011;1899;49.966;7.106;2024-03-22T12:27:46;16.73;;;12.70;;
3767;SDS011;1899;49.966;7.106;2024-03-22T12:30:12;18.03;;;12.17;;
3767;SDS011;1899;49.966;7.106;2024-03-22T12:32:37;21.23;;;13.30;;
3767;SDS011;1899;49.966;7.106;2024-03-22T12:35:02;23.33;;;14.20;;
3767;SDS011;1899;49.966;7.106;2024-03-22T12:37:28;22.70;;;13.50;;
3767;SDS011;1899;49.966;7.106;2024-03-22T12:39:53;22.53;;;13.53;;
3767;SDS011;1899;49.966;7.106;2024-03-22T12:42:19;22.60;;;13.87;;
3767;SDS011;1899;49.966;7.106;2024-03-22T12:44:44;18.97;;;12.80;;
3767;SDS011;1899;49.966;7.106;2024-03-22T12:47:09;21.60;;;14.63;;
3767;SDS011;1899;49.966;7.106;2024-03-22T12:49:34;20.60;;;12.60;;
3767;SDS011;1899;49.966;7.106;2024-03-22T12:52:00;21.17;;;14.33;;
3767;SDS011;1899;49.966;7.106;2024-03-22T12:54:25;20.07;;;13.77;;
3767;SDS011;1899;49.966;7.106;2024-03-22T12:56:51;21.90;;;13.77;;
3767;SDS011;1899;49.966;7.106;2024-03-22T12:59:16;17.10;;;12.00;;
3767;SDS011;1899;49.966;7.106;2024-03-22T13:01:42;24.00;;;13.10;;
3767;SDS011;1899;49.966;7.106;2024-03-22T13:04:07;17.80;;;13.47;;
3767;SDS011;1899;49.966;7.106;2024-03-22T13:06:33;16.80;;;11.60;;
3767;SDS011;1899;49.966;7.106;2024-03-22T13:08:59;16.97;;;12.03;;
3767;SDS011;1899;49.966;7.106;2024-03-22T13:11:24;22.00;;;13.67;;
3767;SDS011;1899;49.966;7.106;2024-03-22T13:13:50;16.77;;;12.13;;
3767;SDS011;1899;49.966;7.106;2024-03-22T13:16:15;16.13;;;11.60;;
3767;SDS011;1899;49.966;7.106;2024-03-22T13:18:44;18.97;;;12.80;;
3767;SDS011;1899;49.966;7.106;2024-03-22T13:21:09;17.03;;;11.60;;
3767;SDS011;1899;49.966;7.106;2024-03-22T13:23:36;17.17;;;10.60;;
3767;SDS011;1899;49.966;7.106;2024-03-22T13:26:04;20.43;;;11.57;;
3767;SDS011;1899;49.966;7.106;2024-03-22T13:28:30;15.50;;;9.53;;
3767;SDS011;1899;49.966;7.106;2024-03-22T13:30:59;17.90;;;9.33;;
3767;SDS011;1899;49.966;7.106;2024-03-22T13:33:24;14.63;;;8.90;;
3767;SDS011;1899;49.966;7.106;2024-03-22T13:35:49;12.33;;;9.13;;
3767;SDS011;1899;49.966;7.106;2024-03-22T13:38:14;12.20;;;7.43;;
3767;SDS011;1899;49.966;7.106;2024-03-22T13:40:41;17.17;;;8.00;;
3767;SDS011;1899;49.966;7.106;2024-03-22T13:43:06;15.10;;;8.40;;
3767;SDS011;1899;49.966;7.106;2024-03-22T13:45:32;13.10;;;7.07;;
3767;SDS011;1899;49.966;7.106;2024-03-22T13:47:57;13.83;;;8.10;;
3767;SDS011;1899;49.966;7.106;2024-03-22T13:50:23;14.93;;;8.37;;
3767;SDS011;1899;49.966;7.106;2024-03-22T13:52:48;13.23;;;7.83;;
3767;SDS011;1899;49.966;7.106;2024-03-22T13:55:13;12.40;;;9.00;;
3767;SDS011;1899;49.966;7.106;2024-03-22T13:57:38;12.97;;;9.50;;
3767;SDS011;1899;49.966;7.106;2024-03-22T14:00:04;15.30;;;10.70;;
3767;SDS011;1899;49.966;7.106;2024-03-22T14:02:32;18.73;;;9.40;;
3767;SDS011;1899;49.966;7.106;2024-03-22T14:04:57;15.63;;;10.90;;
3767;SDS011;1899;49.966;7.106;2024-03-22T14:07:22;15.03;;;10.37;;
3767;SDS011;1899;49.966;7.106;2024-03-22T14:09:48;15.47;;;10.13;;
3767;SDS011;1899;49.966;7.106;2024-03-22T14:12:13;14.87;;;11.00;;
3767;SDS011;1899;49.966;7.106;2024-03-22T14:14:38;18.40;;;11.43;;
3767;SDS011;1899;49.966;7.106;2024-03-22T14:17:05;14.77;;;10.10;;
3767;SDS011;1899;49.966;7.106;2024-03-22T14:19:30;13.87;;;9.60;;
3767;SDS011;1899;49.966;7.106;2024-03-22T14:21:55;16.40;;;9.70;;
3767;SDS011;1899;49.966;7.106;2024-03-22T14:24:20;13.50;;;10.47;;
3767;SDS011;1899;49.966;7.106;2024-03-22T14:26:46;12.83;;;9.97;;
3767;SDS011;1899;49.966;7.106;2024-03-22T14:29:11;14.50;;;8.83;;
3767;SDS011;1899;49.966;7.106;2024-03-22T14:31:37;13.77;;;10.27;;
3767;SDS011;1899;49.966;7.106;2024-03-22T14:34:02;16.87;;;9.60;;
3767;SDS011;1899;49.966;7.106;2024-03-22T14:36:28;13.73;;;10.33;;
3767;SDS011;1899;49.966;7.106;2024-03-22T14:38:53;15.17;;;11.63;;
3767;SDS011;1899;49.966;7.106;2024-03-22T14:41:18;18.20;;;11.80;;
3767;SDS011;1899;49.966;7.106;2024-03-22T14:43:44;18.70;;;12.20;;
3767;SDS011;1899;49.966;7.106;2024-03-22T14:46:09;22.47;;;12.17;;
3767;SDS011;1899;49.966;7.106;2024-03-22T14:48:34;18.10;;;10.20;;
3767;SDS011;1899;49.966;7.106;2024-03-22T14:51:00;15.43;;;10.53;;
3767;SDS011;1899;49.966;7.106;2024-03-22T14:53:26;16.17;;;10.70;;